createdAt,value
2023-05-15T00:02:25.992Z,73.50
2023-05-15T00:05:10.453Z,73.60
2023-05-15T00:07:40.403Z,73.60
2023-05-15T00:10:09.620Z,73.50
2023-05-15T00:12:37.195Z,73.60
2023-05-15T00:15:12.403Z,73.50
2023-05-15T00:17:39.520Z,73.70
2023-05-15T00:20:11.790Z,73.60
2023-05-15T00:22:41.196Z,73.60
2023-05-15T00:25:08.897Z,73.60
2023-05-15T00:27:37.877Z,73.60
2023-05-15T00:30:28.361Z,73.60
2023-05-15T00:33:01.332Z,73.70
2023-05-15T00:35:43.448Z,73.60
2023-05-15T00:38:16.263Z,73.60
2023-05-15T00:40:56.341Z,73.50
2023-05-15T00:43:26.932Z,73.70
2023-05-15T00:46:04.340Z,73.50
2023-05-15T00:48:50.244Z,73.50
2023-05-15T00:51:19.694Z,73.50
2023-05-15T00:53:57.407Z,73.40
2023-05-15T00:56:32.069Z,73.80
2023-05-15T00:59:11.064Z,73.50
2023-05-15T01:01:54.770Z,73.60
2023-05-15T01:05:14.441Z,73.30
2023-05-15T01:08:11.998Z,73.50
2023-05-15T01:10:43.268Z,73.30
2023-05-15T01:13:11.032Z,73.20
2023-05-15T01:15:38.739Z,73.20
2023-05-15T01:18:06.268Z,73.30
2023-05-15T01:21:10.625Z,73.30
2023-05-15T01:23:47.239Z,73.60
2023-05-15T01:27:20.814Z,73.20
2023-05-15T01:30:01.392Z,73.70
2023-05-15T01:32:52.164Z,73.20
2023-05-15T01:35:33.648Z,73.40
2023-05-15T01:38:15.691Z,73.40
2023-05-15T01:40:44.187Z,73.70
2023-05-15T01:43:16.336Z,73.80
2023-05-15T01:45:44.989Z,73.10
2023-05-15T01:48:14.067Z,73.30
2023-05-15T01:50:43.213Z,73.40
2023-05-15T01:53:11.982Z,73.40
2023-05-15T01:55:40.371Z,73.50
2023-05-15T01:58:08.623Z,73.50
2023-05-15T02:00:36.953Z,73.70
2023-05-15T02:03:06.214Z,73.80
2023-05-15T02:05:35.210Z,73.80
2023-05-15T02:08:05.091Z,73.80
2023-05-15T02:10:33.904Z,73.90
2023-05-15T02:13:01.803Z,73.90
2023-05-15T02:15:30.448Z,73.90
2023-05-15T02:17:57.637Z,74.00
2023-05-15T02:20:24.845Z,73.90
2023-05-15T02:22:52.068Z,74.00
2023-05-15T02:25:21.847Z,74.00
2023-05-15T02:27:58.134Z,74.00
2023-05-15T02:30:48.593Z,74.20
2023-05-15T02:33:53.843Z,74.80
2023-05-15T02:36:27.864Z,74.70
2023-05-15T02:39:03.737Z,74.00
2023-05-15T02:41:34.078Z,74.10
2023-05-15T02:44:03.572Z,74.20
2023-05-15T02:46:31.938Z,74.20
2023-05-15T02:48:59.746Z,74.20
2023-05-15T02:51:27.458Z,74.30
2023-05-15T02:53:55.932Z,74.40
2023-05-15T02:56:23.007Z,74.40
2023-05-15T03:05:02.657Z,74.70
2023-05-15T03:10:11.364Z,74.40
2023-05-15T03:12:39.698Z,74.40
2023-05-15T03:15:07.679Z,74.40
2023-05-15T03:17:34.916Z,74.40
2023-05-15T03:20:02.362Z,74.40
2023-05-15T03:22:29.495Z,74.50
2023-05-15T03:24:56.604Z,74.50
2023-05-15T03:27:23.829Z,74.60
2023-05-15T03:29:52.523Z,74.70
2023-05-15T03:32:20.956Z,74.70
2023-05-15T03:39:17.418Z,75.60
2023-05-15T03:46:25.706Z,75.40
2023-05-15T04:01:20.224Z,75.30
2023-05-15T04:14:30.654Z,75.40
2023-05-15T04:16:57.789Z,74.60
2023-05-15T04:19:24.919Z,74.80
2023-05-15T04:21:51.986Z,74.90
2023-05-15T04:24:19.077Z,75.00
2023-05-15T04:26:48.986Z,75.00
2023-05-15T04:29:16.149Z,75.10
2023-05-15T04:31:43.308Z,75.10
2023-05-15T04:34:10.726Z,75.10
2023-05-15T04:36:37.924Z,75.20
2023-05-15T04:39:05.397Z,75.20
2023-05-15T04:41:33.359Z,75.10
2023-05-15T04:44:12.538Z,75.20
2023-05-15T04:46:59.800Z,75.60
2023-05-15T04:49:27.044Z,75.20
2023-05-15T04:52:00.410Z,75.20
2023-05-15T04:54:27.478Z,75.20
2023-05-15T04:56:55.324Z,75.20
2023-05-15T04:59:23.278Z,75.20
2023-05-15T05:04:52.751Z,75.20
2023-05-15T05:07:49.807Z,75.40
2023-05-15T05:14:35.170Z,76.00
2023-05-15T05:24:21.168Z,75.80
2023-05-15T05:26:58.319Z,75.20
2023-05-15T05:29:26.358Z,75.20
2023-05-15T05:31:53.847Z,75.30
2023-05-15T05:34:22.884Z,75.40
2023-05-15T05:36:50.369Z,75.60
2023-05-15T05:39:25.589Z,75.70
2023-05-15T05:41:52.724Z,76.00
2023-05-15T05:44:20.067Z,75.90
2023-05-15T05:46:47.664Z,75.80
2023-05-15T05:49:14.767Z,75.80
2023-05-15T05:51:42.321Z,75.90
2023-05-15T05:54:09.464Z,75.90
2023-05-15T05:56:36.794Z,76.00
2023-05-15T05:59:03.922Z,76.10
2023-05-15T06:01:31.206Z,76.20
2023-05-15T06:03:58.364Z,76.20
2023-05-15T06:06:25.678Z,76.10
2023-05-15T06:08:54.960Z,76.10
2023-05-15T06:11:25.442Z,76.10
2023-05-15T06:13:52.913Z,76.10
2023-05-15T06:16:20.307Z,76.00
2023-05-15T06:18:47.617Z,75.90
2023-05-15T06:21:14.782Z,75.90
2023-05-15T06:23:41.843Z,75.70
2023-05-15T06:26:09.067Z,75.80
2023-05-15T06:28:36.148Z,75.90
2023-05-15T06:31:03.409Z,75.90
2023-05-15T06:33:30.624Z,76.00
2023-05-15T06:36:00.269Z,76.00
2023-05-15T06:38:27.415Z,76.00
2023-05-15T06:40:54.469Z,76.20
2023-05-15T06:43:23.657Z,76.20
2023-05-15T06:45:52.790Z,76.10
2023-05-15T06:48:22.076Z,76.00
2023-05-15T06:50:49.194Z,75.90
2023-05-15T06:53:18.781Z,76.00
2023-05-15T06:55:53.574Z,76.00
2023-05-15T06:58:27.103Z,76.20
2023-05-15T07:00:56.067Z,76.20
2023-05-15T07:03:23.875Z,76.10
2023-05-15T07:05:56.042Z,76.10
2023-05-15T07:08:23.389Z,76.10
2023-05-15T07:10:50.970Z,76.10
2023-05-15T07:13:18.838Z,76.20
2023-05-15T07:15:46.044Z,76.00
2023-05-15T07:18:13.401Z,75.80
2023-05-15T07:20:40.679Z,75.80
2023-05-15T07:23:07.779Z,75.70
2023-05-15T07:25:34.861Z,75.70
2023-05-15T07:28:02.024Z,75.70
2023-05-15T07:30:29.247Z,75.60
2023-05-15T07:32:56.485Z,75.50
2023-05-15T07:35:23.884Z,75.50
2023-05-15T07:37:51.138Z,75.60
2023-05-15T07:40:18.552Z,75.60
2023-05-15T07:42:45.809Z,75.60
2023-05-15T07:45:13.199Z,75.60
2023-05-15T07:47:49.568Z,75.60
2023-05-15T07:50:17.423Z,75.60
2023-05-15T07:52:44.929Z,75.70
2023-05-15T07:55:12.910Z,75.60
2023-05-15T07:57:40.275Z,75.60
2023-05-15T08:00:13.496Z,75.70
2023-05-15T08:02:46.413Z,75.80
2023-05-15T08:05:13.603Z,75.80
2023-05-15T08:07:40.865Z,75.90
2023-05-15T08:10:08.800Z,76.20
2023-05-15T08:12:35.904Z,76.50
2023-05-15T08:15:03.403Z,76.60
2023-05-15T08:17:30.728Z,76.30
2023-05-15T08:19:57.830Z,75.90
2023-05-15T08:22:24.900Z,75.90
2023-05-15T08:24:52.110Z,76.00
2023-05-15T08:27:19.171Z,76.00
2023-05-15T08:29:46.263Z,75.80
2023-05-15T08:32:13.468Z,75.70
2023-05-15T08:34:42.710Z,75.40
2023-05-15T08:37:10.156Z,75.20
2023-05-15T08:39:37.450Z,75.10
2023-05-15T08:42:34.549Z,75.10
2023-05-15T08:45:01.697Z,75.40
2023-05-15T08:47:32.511Z,75.20
2023-05-15T08:50:21.644Z,75.30
2023-05-15T08:52:49.709Z,75.20
2023-05-15T08:55:17.514Z,75.10
2023-05-15T08:57:45.236Z,75.10
2023-05-15T09:00:14.832Z,74.90
2023-05-15T09:02:43.167Z,75.00
2023-05-15T09:05:10.985Z,75.20
2023-05-15T09:07:42.521Z,75.30
2023-05-15T09:10:11.112Z,75.30
2023-05-15T09:12:44.646Z,75.20
2023-05-15T09:15:22.583Z,74.90
2023-05-15T09:17:51.361Z,74.90
2023-05-15T09:20:35.694Z,74.90
2023-05-15T09:23:22.694Z,75.00
2023-05-15T09:25:53.649Z,75.00
2023-05-15T09:28:34.543Z,75.00
2023-05-15T09:31:06.146Z,75.00
2023-05-15T09:33:39.246Z,74.80
2023-05-15T09:36:08.467Z,75.00
2023-05-15T09:38:42.527Z,75.30
2023-05-15T09:41:11.562Z,75.20
2023-05-15T09:43:40.726Z,75.20
2023-05-15T09:46:08.821Z,75.40
2023-05-15T09:48:36.425Z,75.60
2023-05-15T09:51:05.841Z,75.90
2023-05-15T09:53:33.063Z,75.70
2023-05-15T09:56:00.216Z,76.00
2023-05-15T09:58:27.441Z,76.20
2023-05-15T10:00:54.504Z,76.40
2023-05-15T10:03:23.544Z,76.60
2023-05-15T10:05:50.936Z,76.20
2023-05-15T10:08:30.939Z,75.40
2023-05-15T10:11:01.722Z,75.20
2023-05-15T10:13:32.817Z,75.30
2023-05-15T10:16:02.235Z,75.20
2023-05-15T10:18:33.610Z,74.40
2023-05-15T10:21:04.289Z,74.50
2023-05-15T10:23:34.328Z,74.20
2023-05-15T10:26:09.026Z,73.70
2023-05-15T10:28:37.722Z,73.40
2023-05-15T10:31:06.144Z,73.00
2023-05-15T10:33:35.380Z,73.10
2023-05-15T10:36:03.943Z,72.90
2023-05-15T10:38:31.724Z,73.10
2023-05-15T10:41:15.676Z,73.60
2023-05-15T10:43:44.528Z,73.90
2023-05-15T10:46:11.786Z,74.00
2023-05-15T10:48:39.693Z,74.00
2023-05-15T10:51:26.661Z,73.80
2023-05-15T10:53:54.938Z,72.40
2023-05-15T10:56:27.357Z,72.10
2023-05-15T10:58:55.951Z,71.90
2023-05-15T11:01:35.341Z,71.60
2023-05-15T11:04:33.293Z,72.10
2023-05-15T11:07:16.582Z,70.80
2023-05-15T11:09:43.873Z,70.70
2023-05-15T11:12:12.075Z,71.00
2023-05-15T11:15:04.673Z,70.60
2023-05-15T11:17:35.284Z,70.60
2023-05-15T11:20:02.444Z,70.50
2023-05-15T11:22:33.123Z,70.30
2023-05-15T11:25:02.825Z,70.00
2023-05-15T11:27:41.735Z,70.10
2023-05-15T11:30:22.953Z,69.50
2023-05-15T11:33:10.080Z,69.20
2023-05-15T11:35:43.953Z,68.00
2023-05-15T11:38:12.100Z,67.50
2023-05-15T11:41:03.204Z,67.40
2023-05-15T11:43:36.537Z,65.60
2023-05-15T11:46:03.651Z,67.00
2023-05-15T11:48:44.375Z,67.00
2023-05-15T11:51:23.232Z,67.10
2023-05-15T11:53:52.591Z,66.90
2023-05-15T11:56:30.698Z,67.50
2023-05-15T11:59:00.469Z,68.30
2023-05-15T12:01:29.541Z,68.90
2023-05-15T12:03:56.867Z,69.40
2023-05-15T12:06:24.505Z,69.50
2023-05-15T12:08:53.365Z,69.90
2023-05-15T12:11:25.349Z,69.80
2023-05-15T12:13:54.723Z,69.60
2023-05-15T12:16:28.937Z,70.00
2023-05-15T12:19:00.072Z,70.40
2023-05-15T12:21:27.916Z,69.70
2023-05-15T12:26:27.443Z,70.00
2023-05-15T12:28:55.691Z,69.90
2023-05-15T12:31:23.185Z,69.20
2023-05-15T12:33:50.632Z,69.10
2023-05-15T12:36:21.527Z,69.10
2023-05-15T12:38:49.562Z,68.20
2023-05-15T12:41:16.741Z,68.40
2023-05-15T12:43:43.904Z,68.10
2023-05-15T12:46:14.842Z,67.60
2023-05-15T12:48:42.278Z,67.70
2023-05-15T12:51:09.599Z,67.70
2023-05-15T12:53:40.081Z,67.50
2023-05-15T12:56:09.763Z,67.20
2023-05-15T12:58:38.963Z,66.60
2023-05-15T13:01:06.500Z,66.50
2023-05-15T13:03:34.666Z,66.30
2023-05-15T13:06:07.222Z,66.00
2023-05-15T13:08:42.905Z,65.70
2023-05-15T13:11:14.397Z,65.30
2023-05-15T13:13:48.981Z,65.30
2023-05-15T13:16:29.599Z,65.00
2023-05-15T13:19:00.199Z,63.60
2023-05-15T13:21:27.366Z,64.60
2023-05-15T13:23:54.583Z,64.80
2023-05-15T13:26:21.907Z,65.00
2023-05-15T13:28:48.995Z,64.60
2023-05-15T13:31:17.208Z,64.50
2023-05-15T13:33:44.880Z,64.40
2023-05-15T13:36:12.685Z,63.70
2023-05-15T13:38:40.407Z,64.00
2023-05-15T13:41:07.745Z,64.00
2023-05-15T13:43:34.998Z,64.30
2023-05-15T13:46:02.243Z,64.30
2023-05-15T13:48:29.393Z,63.90
2023-05-15T13:50:56.583Z,64.20
2023-05-15T13:53:23.825Z,64.20
2023-05-15T13:55:51.042Z,64.20
2023-05-15T13:58:18.366Z,64.40
2023-05-15T14:00:45.547Z,64.90
2023-05-15T14:03:15.044Z,64.20
2023-05-15T14:05:42.582Z,63.50
2023-05-15T14:08:09.985Z,63.50
2023-05-15T14:10:37.672Z,63.50
2023-05-15T14:13:04.948Z,63.30
2023-05-15T14:15:32.284Z,63.80
2023-05-15T14:18:00.217Z,63.90
2023-05-15T14:20:27.647Z,64.00
2023-05-15T14:22:55.000Z,63.60
2023-05-15T14:25:22.372Z,63.80
2023-05-15T14:27:49.527Z,64.00
2023-05-15T14:30:16.850Z,64.00
2023-05-15T14:32:44.035Z,64.00
2023-05-15T14:35:11.313Z,63.70
2023-05-15T14:37:38.566Z,63.00
2023-05-15T14:40:08.259Z,62.80
2023-05-15T14:42:35.449Z,62.70
2023-05-15T14:45:02.561Z,62.50
2023-05-15T14:47:30.098Z,62.30
2023-05-15T14:49:57.388Z,62.20
2023-05-15T14:52:24.532Z,62.10
2023-05-15T14:55:04.788Z,62.30
2023-05-15T14:57:35.912Z,62.20
2023-05-15T15:00:04.886Z,62.30
2023-05-15T15:02:32.164Z,62.00
2023-05-15T15:04:59.670Z,62.40
2023-05-15T15:07:30.879Z,62.90
2023-05-15T15:09:58.021Z,63.30
2023-05-15T15:12:25.258Z,63.90
2023-05-15T15:14:52.417Z,64.30
2023-05-15T15:17:19.618Z,64.80
2023-05-15T15:19:46.961Z,65.30
2023-05-15T15:22:14.199Z,65.50
2023-05-15T15:24:41.319Z,65.80
2023-05-15T15:27:08.398Z,66.10
2023-05-15T15:29:35.517Z,66.10
2023-05-15T15:32:02.852Z,66.70
2023-05-15T15:34:30.019Z,67.50
2023-05-15T15:36:57.347Z,67.70
2023-05-15T15:39:24.519Z,67.60
2023-05-15T15:41:51.678Z,67.00
2023-05-15T15:44:18.780Z,66.80
2023-05-15T15:46:45.976Z,66.40
2023-05-15T15:49:13.061Z,66.30
2023-05-15T15:51:41.378Z,66.30
2023-05-15T15:54:08.644Z,65.70
2023-05-15T15:56:36.137Z,65.40
2023-05-15T15:59:03.940Z,65.10
2023-05-15T16:01:31.254Z,64.90
2023-05-15T16:03:58.419Z,64.90
2023-05-15T16:06:25.898Z,65.00
2023-05-15T16:08:53.086Z,65.00
2023-05-15T16:11:21.933Z,64.80
2023-05-15T16:13:49.142Z,64.70
2023-05-15T16:16:16.694Z,65.00
2023-05-15T16:18:44.015Z,65.10
2023-05-15T16:21:12.198Z,65.10
2023-05-15T16:23:41.371Z,65.10
2023-05-15T16:26:09.705Z,65.20
2023-05-15T16:28:37.469Z,65.50
2023-05-15T16:31:05.138Z,65.30
2023-05-15T16:33:32.691Z,65.20
2023-05-15T16:35:59.871Z,65.10
2023-05-15T16:38:27.143Z,65.10
2023-05-15T16:40:54.258Z,65.00
2023-05-15T16:43:22.162Z,64.90
2023-05-15T16:45:49.304Z,64.90
2023-05-15T16:48:16.469Z,65.10
2023-05-15T16:50:43.711Z,66.10
2023-05-15T16:53:10.885Z,68.20
2023-05-15T16:55:38.967Z,68.80
2023-05-15T16:58:06.101Z,69.60
2023-05-15T17:00:33.260Z,69.70
2023-05-15T17:03:00.649Z,68.90
2023-05-15T17:05:27.958Z,68.20
2023-05-15T17:07:55.041Z,67.50
2023-05-15T17:10:22.213Z,66.40
2023-05-15T17:12:49.528Z,65.60
2023-05-15T17:15:16.771Z,64.90
2023-05-15T17:17:44.128Z,64.10
2023-05-15T17:20:12.439Z,63.60
2023-05-15T17:22:39.629Z,62.60
2023-05-15T17:25:07.314Z,62.10
2023-05-15T17:27:39.860Z,61.30
2023-05-15T17:30:11.937Z,60.50
2023-05-15T17:32:39.732Z,60.10
2023-05-15T17:35:08.235Z,59.20
2023-05-15T17:37:35.458Z,58.00
2023-05-15T17:40:02.640Z,57.40
2023-05-15T17:42:29.967Z,57.00
2023-05-15T17:44:57.879Z,56.60
2023-05-15T17:47:25.077Z,56.50
2023-05-15T17:49:52.410Z,56.40
2023-05-15T17:52:19.465Z,56.40
2023-05-15T17:54:46.580Z,56.60
2023-05-15T17:57:13.810Z,56.70
2023-05-15T17:59:41.026Z,56.90
2023-05-15T18:02:08.429Z,57.10
2023-05-15T18:04:35.563Z,57.50
2023-05-15T18:07:02.738Z,57.80
2023-05-15T18:09:29.820Z,58.10
2023-05-15T18:11:57.121Z,58.50
2023-05-15T18:14:24.384Z,59.00
2023-05-15T18:16:51.498Z,59.30
2023-05-15T18:19:19.179Z,59.50
2023-05-15T18:21:46.782Z,59.60
2023-05-15T18:24:13.909Z,59.70
2023-05-15T18:26:41.219Z,59.70
2023-05-15T18:29:08.542Z,59.80
2023-05-15T18:31:36.505Z,60.10
2023-05-15T18:34:03.785Z,60.30
2023-05-15T18:36:30.885Z,60.40
2023-05-15T18:38:58.123Z,60.60
2023-05-15T18:41:27.207Z,60.90
2023-05-15T18:43:54.441Z,61.10
2023-05-15T18:46:21.592Z,61.30
2023-05-15T18:48:48.821Z,61.60
2023-05-15T18:51:16.284Z,61.80
2023-05-15T18:53:45.181Z,62.10
2023-05-15T18:56:12.420Z,62.30
2023-05-15T18:58:39.470Z,62.60
2023-05-15T19:01:06.868Z,62.70
2023-05-15T19:03:36.458Z,62.80
2023-05-15T19:06:03.954Z,63.00
2023-05-15T19:08:31.177Z,63.10
2023-05-15T19:11:01.199Z,63.30
2023-05-15T19:13:32.687Z,63.60
2023-05-15T19:15:59.973Z,63.60
2023-05-15T19:18:27.149Z,63.70
2023-05-15T19:20:54.385Z,63.90
2023-05-15T19:23:21.482Z,64.00
2023-05-15T19:25:48.685Z,64.10
2023-05-15T19:28:16.182Z,64.20
2023-05-15T19:30:43.354Z,64.10
2023-05-15T19:33:12.900Z,64.20
2023-05-15T19:35:40.723Z,64.20
2023-05-15T19:38:07.836Z,64.30
2023-05-15T19:40:36.106Z,64.40
2023-05-15T19:43:03.205Z,64.40
2023-05-15T19:45:30.645Z,64.60
2023-05-15T19:47:59.103Z,64.80
2023-05-15T19:50:26.814Z,64.80
2023-05-15T19:52:54.196Z,64.80
2023-05-15T19:55:21.482Z,65.10
2023-05-15T19:57:48.701Z,65.10
2023-05-15T20:00:16.527Z,65.20
2023-05-15T20:02:43.787Z,65.20
2023-05-15T20:05:11.010Z,65.20
2023-05-15T20:07:38.506Z,65.20
2023-05-15T20:10:06.881Z,65.20
2023-05-15T20:12:34.010Z,65.30
2023-05-15T20:15:01.137Z,65.40
2023-05-15T20:17:28.469Z,65.60
2023-05-15T20:19:57.073Z,65.70
2023-05-15T20:22:24.199Z,65.80
2023-05-15T20:24:51.252Z,65.90
2023-05-15T20:27:18.542Z,66.10
2023-05-15T20:29:45.757Z,66.30
2023-05-15T20:32:13.806Z,66.40
2023-05-15T20:34:42.654Z,66.60
2023-05-15T20:37:09.917Z,66.70
2023-05-15T20:39:37.255Z,67.00
2023-05-15T20:42:04.847Z,67.10
2023-05-15T20:44:32.883Z,67.10
2023-05-15T20:46:59.975Z,67.20
2023-05-15T20:49:27.066Z,67.20
2023-05-15T20:51:54.185Z,67.30
2023-05-15T20:54:21.347Z,67.30
2023-05-15T20:56:48.540Z,67.50
2023-05-15T20:59:15.856Z,67.50
2023-05-15T21:01:42.968Z,67.50
2023-05-15T21:04:10.239Z,67.40
2023-05-15T21:06:37.568Z,67.50
2023-05-15T21:09:04.800Z,67.60
2023-05-15T21:11:32.310Z,67.60
2023-05-15T21:13:59.425Z,67.70
2023-05-15T21:16:26.649Z,67.60
2023-05-15T21:18:53.802Z,67.50
2023-05-15T21:21:21.002Z,67.70
2023-05-15T21:23:48.162Z,67.80
2023-05-15T21:26:15.618Z,68.00
2023-05-15T21:28:42.780Z,68.10
2023-05-15T21:31:10.605Z,68.20
2023-05-15T21:33:38.321Z,68.40
2023-05-15T21:36:05.763Z,68.50
2023-05-15T21:38:34.131Z,68.60
2023-05-15T21:41:02.369Z,68.70
2023-05-15T21:43:29.452Z,68.70
2023-05-15T21:45:57.166Z,68.70
2023-05-15T21:48:24.345Z,68.80
2023-05-15T21:50:55.379Z,68.90
2023-05-15T21:53:23.142Z,69.00
2023-05-15T21:55:52.155Z,69.00
2023-05-15T21:58:19.308Z,69.10
2023-05-15T22:00:46.599Z,69.20
2023-05-15T22:03:13.888Z,69.50
2023-05-15T22:05:41.039Z,69.50
2023-05-15T22:08:08.118Z,69.50
2023-05-15T22:10:35.538Z,69.70
2023-05-15T22:13:03.488Z,69.70
2023-05-15T22:15:31.112Z,69.90
2023-05-15T22:18:00.650Z,69.80
2023-05-15T22:20:29.174Z,70.00
2023-05-15T22:22:56.312Z,70.10
2023-05-15T22:25:23.599Z,70.10
2023-05-15T22:27:50.869Z,70.20
2023-05-15T22:30:17.998Z,70.20
2023-05-15T22:32:45.467Z,70.30
2023-05-15T22:35:13.395Z,70.30
2023-05-15T22:37:42.155Z,70.40
2023-05-15T22:40:11.661Z,70.40
2023-05-15T22:42:38.810Z,70.50
2023-05-15T22:45:07.287Z,70.40
2023-05-15T22:47:34.479Z,70.50
2023-05-15T22:50:01.680Z,70.50
2023-05-15T22:52:28.848Z,70.50
2023-05-15T22:54:55.965Z,70.60
2023-05-15T22:57:24.076Z,70.70
2023-05-15T22:59:51.289Z,70.70
2023-05-15T23:02:18.519Z,70.80
2023-05-15T23:04:45.948Z,70.80
2023-05-15T23:07:13.437Z,70.70
2023-05-15T23:09:40.804Z,70.70
2023-05-15T23:12:08.296Z,70.60
2023-05-15T23:14:35.518Z,70.70
2023-05-15T23:17:03.669Z,70.80
2023-05-15T23:19:30.858Z,70.80
2023-05-15T23:21:57.958Z,70.80
2023-05-15T23:24:25.166Z,70.80
2023-05-15T23:26:52.428Z,70.90
2023-05-15T23:29:19.559Z,70.90
2023-05-15T23:31:46.735Z,70.90
2023-05-15T23:34:13.878Z,70.90
2023-05-15T23:36:41.355Z,71.00
2023-05-15T23:39:09.398Z,71.00
2023-05-15T23:41:36.608Z,71.00
2023-05-15T23:44:04.264Z,70.90
2023-05-15T23:46:31.535Z,70.90
2023-05-15T23:48:58.638Z,70.80
2023-05-15T23:51:25.823Z,70.90
2023-05-15T23:53:52.974Z,71.00
2023-05-15T23:56:20.420Z,70.90
2023-05-15T23:58:47.562Z,71.00
